Terminal Aerodrome Forecast
Issued by NWS Corpus Christi, TX

Home | Current Version | Previous Version | Text Only | Print | Product List | Glossary On
Versions: 1 2 3 4 5 6 7 8 9 10 11 12 13 14
000
FTUS44 KCRP 042335
TAFCRP
TAF
KCRP 042335Z 0500/0524 15015G22KT P6SM FEW025 SCT035
     FM050200 15009KT P6SM FEW015 SCT250
     FM050800 16005KT P6SM SCT015
      TEMPO 0510/0513 BKN015
     FM051500 17012G20KT P6SM SCT025
     FM051900 14015G22KT P6SM SCT040=

USA.gov is the U.S. government's official web portal to all federal, state and local government web resources and services.